LIPB Airport Information

Runway Information
Runway 01 Length 4255 ft width 98 ft
Elevation 771 ft Threshold 0 ft Heading 10
Runway 19 Length 4255 ft Width 98 ft
Elevation 788 ft Threshold 200 ft Heading 190
Runway 01R Length 2290 ft width 66 ft
Elevation 773 ft Threshold 0 ft Heading 11
Runway 19L Length 2290 ft Width 66 ft
Elevation 782 ft Threshold 0 ft Heading 191
Airport Frequencies
Type AFIS Name INFO Frequency 120.6 MHZ
Airport Navaids
Type NDB Name Bolzano Frequency 362 KHZ
Type VOR-DME Name Bolzano Frequency 117050 KHZ
Airport Weather Information & NOTAM
ADDS - METARS form results

(1225 UTC 18 October 2018)
Data provider http://aviationweather.gov/metar/data/
 
METAR text: LIPB 181150Z 00000KT 9999 FEW060 19/10 Q1017
Conditions at: LIPB (BOLZANO(CIV/IT-A, IT) observed 1150 UTC 18 October 2018
Temperature: 19.0°C (66°F)
Dewpoint: 10.0°C (50°F) [RH = 56%]
Pressure (altimeter): 30.03 inches Hg (1017.0 mb)
Winds: calm
Visibility: 6 or more miles (10+ km)
Ceiling: at least 12,000 feet AGL
Clouds: few clouds at 6000 feet AGL
Weather: no significant weather observed at this time

Forecast for: LIPB (BOLZANO(CIV/IT-A, IT)
Text: TAF LIPB 181100Z 1812/1912 VRB05KT CAVOK
Forecast period: 1200 UTC 18 October 2018 to 1200 UTC 19 October 2018
Forecast type: FROM: standard forecast or significant change
Winds: variable direction winds at 6 MPH (5 knots; 2.6 m/s)
Visibility: 6 or more miles 10+ km)
Ceiling: unknown
Clouds: missing
Weather: NSW  (no significant weather)